createdAt,value
2018-04-19T00:00:55.158Z,90.59
2018-04-19T00:01:55.083Z,90.03
2018-04-19T00:02:55.009Z,90.31
2018-04-19T00:03:54.936Z,89.64
2018-04-19T00:04:54.861Z,90.41
2018-04-19T00:05:54.790Z,90.12
2018-04-19T00:06:54.711Z,90.12
2018-04-19T00:07:54.642Z,89.93
2018-04-19T00:08:54.565Z,90.12
2018-04-19T00:09:54.490Z,90.31
2018-04-19T00:10:54.417Z,89.64
2018-04-19T00:11:54.355Z,89.36
2018-04-19T00:12:54.304Z,88.98
2018-04-19T00:13:54.193Z,89.45
2018-04-19T00:14:54.120Z,89.17
2018-04-19T00:15:54.046Z,88.98
2018-04-19T00:16:53.971Z,88.69
2018-04-19T00:17:53.902Z,89.45
2018-04-19T00:18:53.826Z,89.17
2018-04-19T00:19:53.748Z,89.54
2018-04-19T00:20:53.680Z,89.45
2018-04-19T00:21:53.603Z,89.54
2018-04-19T00:22:53.527Z,89.54
2018-04-19T00:23:53.453Z,89.93
2018-04-19T00:24:53.379Z,89.83
2018-04-19T00:25:53.304Z,90.03
2018-04-19T00:26:53.229Z,89.93
2018-04-19T00:27:53.156Z,89.83
2018-04-19T00:28:53.082Z,89.74
2018-04-19T00:29:53.008Z,89.93
2018-04-19T00:30:52.933Z,89.83
2018-04-19T00:31:52.861Z,90.03
2018-04-19T00:32:52.786Z,89.93
2018-04-19T00:33:52.711Z,90.03
2018-04-19T00:34:52.643Z,89.93
2018-04-19T00:35:52.563Z,90.88
2018-04-19T00:36:52.489Z,90.31
2018-04-19T00:37:52.414Z,90.59
2018-04-19T00:38:52.341Z,90.12
2018-04-19T00:39:52.267Z,89.93
2018-04-19T00:40:52.196Z,89.93
2018-04-19T00:41:52.118Z,89.54
2018-04-19T00:42:52.044Z,89.45
2018-04-19T00:43:51.972Z,89.74
2018-04-19T00:44:51.896Z,89.26
2018-04-19T00:45:51.823Z,90.31
2018-04-19T00:46:51.748Z,90.03
2018-04-19T00:47:51.674Z,90.59
2018-04-19T00:48:51.600Z,89.98
2018-04-19T00:49:51.524Z,90.79
2018-04-19T00:50:51.451Z,90.93
2018-04-19T00:51:51.377Z,90.98
2018-04-19T00:52:51.303Z,90.98
2018-04-19T00:53:51.229Z,90.93
2018-04-19T00:54:51.158Z,89.64
2018-04-19T00:55:51.080Z,90.59
2018-04-19T00:56:51.012Z,89.07
2018-04-19T00:57:50.931Z,88.40
2018-04-19T00:58:50.858Z,87.74
2018-04-19T00:59:50.783Z,87.83
2018-04-19T01:00:50.709Z,87.78
2018-04-19T01:01:50.634Z,86.82
2018-04-19T01:02:50.559Z,87.68
2018-04-19T01:03:50.486Z,87.02
2018-04-19T01:04:50.411Z,88.07
2018-04-19T01:05:50.337Z,88.16
2018-04-19T01:06:50.262Z,88.40
2018-04-19T01:07:50.189Z,88.02
2018-04-19T01:08:50.119Z,88.31
2018-04-19T01:09:50.040Z,88.40
2018-04-19T01:10:49.967Z,88.69
2018-04-19T01:11:49.901Z,88.50
2018-04-19T01:12:49.819Z,88.40
2018-04-19T01:13:49.744Z,88.31
2018-04-19T01:14:49.670Z,89.26
2018-04-19T01:15:49.595Z,89.26
2018-04-19T01:16:49.522Z,89.17
2018-04-19T01:17:49.447Z,90.12
2018-04-19T01:18:49.374Z,90.55
2018-04-19T01:19:49.299Z,90.93
2018-04-19T01:20:49.225Z,91.03
2018-04-19T01:21:49.154Z,91.13
2018-04-19T01:22:49.076Z,90.74
2018-04-19T01:23:49.002Z,90.74
2018-04-19T01:24:48.927Z,90.93
2018-04-19T01:25:48.855Z,90.55
2018-04-19T01:26:48.778Z,91.22
2018-04-19T01:27:48.704Z,91.50
2018-04-19T01:28:48.634Z,91.31
2018-04-19T01:29:48.555Z,91.41
2018-04-19T01:30:48.481Z,91.50
2018-04-19T01:31:48.406Z,90.84
2018-04-19T01:32:48.333Z,90.55
2018-04-19T01:33:48.259Z,90.64
2018-04-19T01:34:48.183Z,90.93
2018-04-19T01:35:48.109Z,90.84
2018-04-19T01:36:48.034Z,90.93
2018-04-19T01:37:47.958Z,90.93
2018-04-19T01:38:47.885Z,90.74
2018-04-19T01:39:47.809Z,90.64
2018-04-19T01:40:47.736Z,91.03
2018-04-19T01:41:47.662Z,90.93
2018-04-19T01:42:47.587Z,90.64
2018-04-19T01:43:47.513Z,90.64
2018-04-19T01:44:47.438Z,90.84
2018-04-19T01:45:47.363Z,91.03
2018-04-19T01:46:47.289Z,90.93
2018-04-19T01:47:47.215Z,90.93
2018-04-19T01:48:47.139Z,91.03
2018-04-19T01:49:47.066Z,91.60
2018-04-19T01:50:46.989Z,90.08
2018-04-19T01:51:46.921Z,90.93
2018-04-19T01:52:46.841Z,90.64
2018-04-19T01:53:46.767Z,90.36
2018-04-19T01:54:46.692Z,90.17
2018-04-19T01:55:46.619Z,89.89
2018-04-19T01:56:46.543Z,90.08
2018-04-19T01:57:46.468Z,90.08
2018-04-19T01:58:46.394Z,90.74
2018-04-19T01:59:46.321Z,90.55
2018-04-19T02:00:46.247Z,90.64
2018-04-19T02:01:46.169Z,90.64
2018-04-19T02:02:46.099Z,90.93
2018-04-19T02:03:46.021Z,91.03
2018-04-19T02:04:45.947Z,90.84
2018-04-19T02:05:45.872Z,90.36
2018-04-19T02:06:45.798Z,90.26
2018-04-19T02:07:45.723Z,89.40
2018-04-19T02:08:45.648Z,89.98
2018-04-19T02:09:45.573Z,89.89
2018-04-19T02:10:45.501Z,89.12
2018-04-19T02:11:45.423Z,89.50
2018-04-19T02:12:45.349Z,89.79
2018-04-19T02:13:45.276Z,89.69
2018-04-19T02:14:45.199Z,90.45
2018-04-19T02:15:45.129Z,90.74
2018-04-19T02:16:45.051Z,90.93
2018-04-19T02:17:44.977Z,91.41
2018-04-19T02:18:44.900Z,91.31
2018-04-19T02:19:44.826Z,91.69
2018-04-19T02:20:44.753Z,91.13
2018-04-19T02:21:44.977Z,91.03
2018-04-19T02:22:44.602Z,90.45
2018-04-19T02:23:44.528Z,91.22
2018-04-19T02:24:44.452Z,91.50
2018-04-19T02:25:44.377Z,90.84
2018-04-19T02:26:44.304Z,89.98
2018-04-19T02:27:44.229Z,90.26
2018-04-19T02:28:44.153Z,90.55
2018-04-19T02:29:44.078Z,89.03
2018-04-19T02:30:44.004Z,89.03
2018-04-19T02:31:43.930Z,89.40
2018-04-19T02:32:43.857Z,89.31
2018-04-19T02:33:43.781Z,89.50
2018-04-19T02:34:43.707Z,89.26
2018-04-19T02:35:43.632Z,89.60
2018-04-19T02:36:43.557Z,90.17
2018-04-19T02:37:43.481Z,89.50
2018-04-19T02:38:43.408Z,89.89
2018-04-19T02:39:43.332Z,90.17
2018-04-19T02:40:43.264Z,90.84
2018-04-19T02:41:43.183Z,91.74
2018-04-19T02:42:43.109Z,92.79
2018-04-19T02:43:43.037Z,93.46
2018-04-19T02:44:42.960Z,93.84
2018-04-19T02:45:42.889Z,93.84
2018-04-19T02:46:42.810Z,93.55
2018-04-19T02:47:42.735Z,93.93
2018-04-19T02:48:42.660Z,94.03
2018-04-19T02:49:42.585Z,94.32
2018-04-19T02:50:42.511Z,93.84
2018-04-19T02:51:42.436Z,94.13
2018-04-19T02:52:42.362Z,94.79
2018-04-19T02:53:42.287Z,94.89
2018-04-19T02:54:42.211Z,94.03
2018-04-19T02:55:42.137Z,94.03
2018-04-19T02:56:42.062Z,93.74
2018-04-19T02:57:41.987Z,93.84
2018-04-19T02:58:41.912Z,94.13
2018-04-19T02:59:41.838Z,94.03
2018-04-19T03:00:41.763Z,93.65
2018-04-19T03:01:41.691Z,93.93
2018-04-19T03:02:41.612Z,93.84
2018-04-19T03:03:41.537Z,93.74
2018-04-19T03:04:41.463Z,93.84
2018-04-19T03:05:41.392Z,94.22
2018-04-19T03:06:41.312Z,94.70
2018-04-19T03:07:41.237Z,94.74
2018-04-19T03:08:41.163Z,94.89
2018-04-19T03:09:41.088Z,94.74
2018-04-19T03:10:41.011Z,95.12
2018-04-19T03:11:40.941Z,95.03
2018-04-19T03:12:40.862Z,94.89
2018-04-19T03:13:40.785Z,94.08
2018-04-19T03:14:40.712Z,94.03
2018-04-19T03:15:40.637Z,93.46
2018-04-19T03:16:40.560Z,92.69
2018-04-19T03:17:40.485Z,92.79
2018-04-19T03:18:40.411Z,92.32
2018-04-19T03:19:40.336Z,93.08
2018-04-19T03:20:40.262Z,92.69
2018-04-19T03:21:40.186Z,92.32
2018-04-19T03:22:40.111Z,92.41
2018-04-19T03:23:40.037Z,91.46
2018-04-19T03:24:39.961Z,92.41
2018-04-19T03:25:39.887Z,92.50
2018-04-19T03:26:39.813Z,91.65
2018-04-19T03:27:39.740Z,92.32
2018-04-19T03:28:39.662Z,92.60
2018-04-19T03:29:39.588Z,91.36
2018-04-19T03:30:39.514Z,90.98
2018-04-19T03:31:39.438Z,91.46
2018-04-19T03:32:39.362Z,90.60
2018-04-19T03:33:39.288Z,89.98
2018-04-19T03:34:39.212Z,90.79
2018-04-19T03:35:39.138Z,91.03
2018-04-19T03:36:39.063Z,90.36
2018-04-19T03:37:38.988Z,89.12
2018-04-19T03:38:38.915Z,89.22
2018-04-19T03:39:38.838Z,89.03
2018-04-19T03:40:38.763Z,87.88
2018-04-19T03:41:38.689Z,86.83
2018-04-19T03:42:38.614Z,85.83
2018-04-19T03:43:38.540Z,84.78
2018-04-19T03:44:38.464Z,84.30
2018-04-19T03:45:38.388Z,84.49
2018-04-19T03:46:38.313Z,83.87
2018-04-19T03:47:38.238Z,84.40
2018-04-19T03:48:38.173Z,83.92
2018-04-19T03:49:38.089Z,84.40
2018-04-19T03:50:38.016Z,84.30
2018-04-19T03:51:37.941Z,83.44
2018-04-19T03:52:37.866Z,82.63
2018-04-19T03:53:37.791Z,83.01
2018-04-19T03:54:37.715Z,82.15
2018-04-19T03:55:37.641Z,81.48
2018-04-19T03:56:37.568Z,82.34
2018-04-19T03:57:37.491Z,82.24
2018-04-19T03:58:37.417Z,81.96
2018-04-19T03:59:37.342Z,80.72
2018-04-19T04:00:37.268Z,79.43
2018-04-19T04:01:37.193Z,78.56
2018-04-19T04:02:37.118Z,78.66
2018-04-19T04:03:37.044Z,77.70
2018-04-19T04:04:36.970Z,78.09
2018-04-19T04:05:36.894Z,78.18
2018-04-19T04:06:36.860Z,78.28
2018-04-19T04:07:36.745Z,77.89
2018-04-19T04:08:36.671Z,77.89
2018-04-19T04:09:36.596Z,77.51
2018-04-19T04:10:36.527Z,78.09
2018-04-19T04:11:36.447Z,77.80
2018-04-19T04:12:36.373Z,78.18
2018-04-19T04:13:36.300Z,77.89
2018-04-19T04:14:36.225Z,78.18
2018-04-19T04:15:36.150Z,78.28
2018-04-19T04:16:36.081Z,78.09
2018-04-19T04:17:36.004Z,76.79
2018-04-19T04:18:35.928Z,75.26
2018-04-19T04:19:35.852Z,75.54
2018-04-19T04:20:35.779Z,75.83
2018-04-19T04:21:35.704Z,76.31
2018-04-19T04:22:35.630Z,75.54
2018-04-19T04:23:35.556Z,74.69
2018-04-19T04:24:35.481Z,75.07
2018-04-19T04:25:35.408Z,75.16
2018-04-19T04:26:35.333Z,75.74
2018-04-19T04:27:35.260Z,76.40
2018-04-19T04:28:35.185Z,76.12
2018-04-19T04:29:35.111Z,77.55
2018-04-19T04:30:35.037Z,76.60
2018-04-19T04:31:34.964Z,75.93
2018-04-19T04:32:34.887Z,77.17
2018-04-19T04:33:34.814Z,76.12
2018-04-19T04:34:34.740Z,75.64
2018-04-19T04:35:34.666Z,74.98
2018-04-19T04:36:34.592Z,74.98
2018-04-19T04:37:34.516Z,75.64
2018-04-19T04:38:34.443Z,74.78
2018-04-19T04:39:34.369Z,73.77
2018-04-19T04:40:34.295Z,73.77
2018-04-19T04:41:34.221Z,72.72
2018-04-19T04:42:34.149Z,71.67
2018-04-19T04:43:34.073Z,72.24
2018-04-19T04:44:34.004Z,72.53
2018-04-19T04:45:33.926Z,71.99
2018-04-19T04:46:33.851Z,70.94
2018-04-19T04:47:33.778Z,71.13
2018-04-19T04:48:33.705Z,70.84
2018-04-19T04:49:33.629Z,70.94
2018-04-19T04:50:33.555Z,70.84
2018-04-19T04:51:33.482Z,71.13
2018-04-19T04:52:33.408Z,71.22
2018-04-19T04:53:33.333Z,72.28
2018-04-19T04:54:33.259Z,70.36
2018-04-19T04:55:33.187Z,71.22
2018-04-19T04:56:33.113Z,70.94
2018-04-19T04:57:33.040Z,70.27
2018-04-19T04:58:32.966Z,71.61
2018-04-19T04:59:32.893Z,71.32
2018-04-19T05:00:32.820Z,70.07
2018-04-19T05:01:32.749Z,70.07
2018-04-19T05:02:32.675Z,69.98
2018-04-19T05:03:32.598Z,69.89
2018-04-19T05:04:32.532Z,70.07
2018-04-19T05:05:32.450Z,70.94
2018-04-19T05:06:32.378Z,71.89
2018-04-19T05:07:32.305Z,69.98
2018-04-19T05:08:32.230Z,69.89
2018-04-19T05:09:32.157Z,69.41
2018-04-19T05:10:32.082Z,70.07
2018-04-19T05:11:32.010Z,71.03
2018-04-19T05:12:31.937Z,69.98
2018-04-19T05:13:31.868Z,70.27
2018-04-19T05:14:31.803Z,69.98
2018-04-19T05:15:31.719Z,70.84
2018-04-19T05:16:31.644Z,69.89
2018-04-19T05:17:31.575Z,69.79
2018-04-19T05:18:31.496Z,68.84
2018-04-19T05:19:31.425Z,68.49
2018-04-19T05:20:31.355Z,70.21
2018-04-19T05:21:31.276Z,69.73
2018-04-19T05:22:31.203Z,69.12
2018-04-19T05:23:31.130Z,69.44
2018-04-19T05:24:31.056Z,70.07
2018-04-19T05:25:30.984Z,71.03
2018-04-19T05:26:30.910Z,70.36
2018-04-19T05:27:30.838Z,71.22
2018-04-19T05:28:30.765Z,69.70
2018-04-19T05:29:30.693Z,70.01
2018-04-19T05:30:30.618Z,71.13
2018-04-19T05:31:30.544Z,72.08
2018-04-19T05:32:30.473Z,73.23
2018-04-19T05:33:30.399Z,71.89
2018-04-19T05:34:30.325Z,72.94
2018-04-19T05:35:30.251Z,73.61
2018-04-19T05:36:30.179Z,74.85
2018-04-19T05:37:30.104Z,72.91
2018-04-19T05:38:30.033Z,72.08
2018-04-19T05:39:29.960Z,72.08
2018-04-19T05:40:29.886Z,73.04
2018-04-19T05:41:29.813Z,73.99
2018-04-19T05:42:29.739Z,74.95
2018-04-19T05:43:29.668Z,73.23
2018-04-19T05:44:29.594Z,72.47
2018-04-19T05:45:29.524Z,72.28
2018-04-19T05:46:29.447Z,72.18
2018-04-19T05:47:29.374Z,70.97
2018-04-19T05:48:29.302Z,70.87
2018-04-19T05:49:29.227Z,70.11
2018-04-19T05:50:29.156Z,68.58
2018-04-19T05:51:29.082Z,69.00
2018-04-19T05:52:29.009Z,69.00
2018-04-19T05:53:28.939Z,68.71
2018-04-19T05:54:28.876Z,69.86
2018-04-19T05:55:28.789Z,71.01
2018-04-19T05:56:28.718Z,71.11
2018-04-19T05:57:28.644Z,70.24
2018-04-19T05:58:28.572Z,72.41
2018-04-19T05:59:28.498Z,72.02
2018-04-19T06:00:28.427Z,72.22
2018-04-19T06:01:28.356Z,71.64
2018-04-19T06:02:28.280Z,72.12
2018-04-19T06:03:28.208Z,72.88
2018-04-19T06:04:28.136Z,72.02
2018-04-19T06:05:28.063Z,72.02
2018-04-19T06:06:27.989Z,71.87
2018-04-19T06:07:27.917Z,71.30
2018-04-19T06:08:27.845Z,69.95
2018-04-19T06:09:27.773Z,69.29
2018-04-19T06:10:27.701Z,70.24
2018-04-19T06:11:27.628Z,70.34
2018-04-19T06:12:27.557Z,68.71
2018-04-19T06:13:27.482Z,68.65
2018-04-19T06:14:27.411Z,68.07
2018-04-19T06:15:27.338Z,69.99
2018-04-19T06:16:27.267Z,70.95
2018-04-19T06:17:27.196Z,71.04
2018-04-19T06:18:27.122Z,69.99
2018-04-19T06:19:27.049Z,72.19
2018-04-19T06:20:26.977Z,72.38
2018-04-19T06:21:26.905Z,71.42
2018-04-19T06:22:26.832Z,71.33
2018-04-19T06:23:26.761Z,73.44
2018-04-19T06:24:26.691Z,74.49
2018-04-19T06:25:26.616Z,75.26
2018-04-19T06:26:26.549Z,75.54
2018-04-19T06:27:26.473Z,76.65
2018-04-19T06:28:26.401Z,73.97
2018-04-19T06:29:26.328Z,76.18
2018-04-19T06:30:26.312Z,75.22
2018-04-19T06:31:26.189Z,75.51
2018-04-19T06:32:26.114Z,75.98
2018-04-19T06:33:26.041Z,75.54
2018-04-19T06:34:25.973Z,75.51
2018-04-19T06:35:25.898Z,75.45
2018-04-19T06:36:25.830Z,74.77
2018-04-19T06:37:25.758Z,75.35
2018-04-19T06:38:25.683Z,74.30
2018-04-19T06:39:25.612Z,74.68
2018-04-19T06:40:25.540Z,75.16
2018-04-19T06:41:25.474Z,75.29
2018-04-19T06:42:25.398Z,75.93
2018-04-19T06:43:25.328Z,76.73
2018-04-19T06:44:25.256Z,75.73
2018-04-19T06:45:25.182Z,76.82
2018-04-19T06:46:25.113Z,75.83
2018-04-19T06:47:25.040Z,75.68
2018-04-19T06:48:24.971Z,74.52
2018-04-19T06:49:24.897Z,75.20
2018-04-19T06:50:24.825Z,78.17
2018-04-19T06:51:24.757Z,76.44
2018-04-19T06:52:24.684Z,75.01
2018-04-19T06:53:24.612Z,75.10
2018-04-19T06:54:24.541Z,75.29
2018-04-19T06:55:24.470Z,76.73
2018-04-19T06:56:24.399Z,75.58
2018-04-19T06:57:24.328Z,74.62
2018-04-19T06:58:24.256Z,75.14
2018-04-19T06:59:24.186Z,74.57
2018-04-19T07:00:24.114Z,73.70
2018-04-19T07:01:24.043Z,75.43
2018-04-19T07:02:23.971Z,75.52
2018-04-19T07:03:23.901Z,75.90
2018-04-19T07:04:23.834Z,74.08
2018-04-19T07:05:23.758Z,73.26
2018-04-19T07:06:23.688Z,72.49
2018-04-19T07:07:23.619Z,74.12
2018-04-19T07:08:23.547Z,73.83
2018-04-19T07:09:23.475Z,72.88
2018-04-19T07:10:23.404Z,72.20
2018-04-19T07:11:23.332Z,73.97
2018-04-19T07:12:23.264Z,73.49
2018-04-19T07:13:23.191Z,72.91
2018-04-19T07:14:23.119Z,71.47
2018-04-19T07:15:23.050Z,70.32
2018-04-19T07:16:22.980Z,70.61
2018-04-19T07:17:22.908Z,69.01
2018-04-19T07:18:22.842Z,69.40
2018-04-19T07:19:22.766Z,69.11
2018-04-19T07:20:22.733Z,68.53
2018-04-19T07:21:22.625Z,68.05
2018-04-19T07:22:22.554Z,65.20
2018-04-19T07:23:22.484Z,62.23
2018-04-19T07:24:22.413Z,61.65
2018-04-19T07:25:22.341Z,62.81
2018-04-19T07:26:22.272Z,62.93
2018-04-19T07:27:22.202Z,61.87
2018-04-19T07:28:22.131Z,59.41
2018-04-19T07:29:22.060Z,59.12
2018-04-19T07:30:21.990Z,59.02
2018-04-19T07:31:21.924Z,60.46
2018-04-19T07:32:21.853Z,58.35
2018-04-19T07:33:21.780Z,62.00
2018-04-19T07:34:21.709Z,57.48
2018-04-19T07:35:21.638Z,60.27
2018-04-19T07:36:21.568Z,59.02
2018-04-19T07:37:21.498Z,57.32
2018-04-19T07:38:21.428Z,57.70
2018-04-19T07:39:21.359Z,58.76
2018-04-19T07:40:21.290Z,58.76
2018-04-19T07:41:21.220Z,58.95
2018-04-19T07:42:21.150Z,57.60
2018-04-19T07:43:21.080Z,57.83
2018-04-19T07:44:21.011Z,56.38
2018-04-19T07:45:20.941Z,54.91
2018-04-19T07:46:20.871Z,56.48
2018-04-19T07:47:20.803Z,56.10
2018-04-19T07:48:20.733Z,55.90
2018-04-19T07:49:20.662Z,59.17
2018-04-19T07:50:20.593Z,55.62
2018-04-19T07:51:20.525Z,54.94
2018-04-19T07:52:20.454Z,55.62
2018-04-19T07:53:20.384Z,54.94
2018-04-19T07:54:20.315Z,54.85
2018-04-19T07:55:20.248Z,55.83
2018-04-19T07:56:20.178Z,54.58
2018-04-19T07:57:20.111Z,55.07
2018-04-19T07:58:20.038Z,54.30
2018-04-19T07:59:19.970Z,59.59
2018-04-19T08:00:19.900Z,57.28
2018-04-19T08:01:19.831Z,54.49
2018-04-19T08:02:19.762Z,53.14
2018-04-19T08:03:19.693Z,52.56
2018-04-19T08:04:19.627Z,52.18
2018-04-19T08:05:19.608Z,53.14
2018-04-19T08:06:19.490Z,53.23
2018-04-19T08:07:19.417Z,55.26
2018-04-19T08:08:19.351Z,55.57
2018-04-19T08:09:19.277Z,54.61
2018-04-19T08:10:19.209Z,54.13
2018-04-19T08:11:19.182Z,54.80
2018-04-19T08:12:19.072Z,55.77
2018-04-19T08:13:19.002Z,55.00
2018-04-19T08:14:18.934Z,54.71
2018-04-19T08:15:18.866Z,52.97
2018-04-19T08:16:18.797Z,54.22
2018-04-19T08:17:18.727Z,52.78
2018-04-19T08:18:18.659Z,55.09
2018-04-19T08:19:18.591Z,56.92
2018-04-19T08:20:18.523Z,56.44
2018-04-19T08:21:18.456Z,54.44
2018-04-19T08:22:18.389Z,52.13
2018-04-19T08:23:18.316Z,53.29
2018-04-19T08:24:18.248Z,50.30
2018-04-19T08:25:18.177Z,50.49
2018-04-19T08:26:18.109Z,51.17
2018-04-19T08:27:18.044Z,51.17
2018-04-19T08:28:17.973Z,52.52
2018-04-19T08:29:17.904Z,51.46
2018-04-19T08:30:17.836Z,51.84
2018-04-19T08:31:17.768Z,50.78
2018-04-19T08:32:17.698Z,51.84
2018-04-19T08:33:17.630Z,51.77
2018-04-19T08:34:17.561Z,48.59
2018-04-19T08:35:17.492Z,50.04
2018-04-19T08:36:17.425Z,49.55
2018-04-19T08:37:17.355Z,50.90
2018-04-19T08:38:17.287Z,51.00
2018-04-19T08:39:17.218Z,50.04
2018-04-19T08:40:17.151Z,48.59
2018-04-19T08:41:17.081Z,47.82
2018-04-19T08:42:17.013Z,47.05
2018-04-19T08:43:16.944Z,47.44
2018-04-19T08:44:16.877Z,47.05
2018-04-19T08:45:16.808Z,48.40
2018-04-19T08:46:16.742Z,48.11
2018-04-19T08:47:16.678Z,48.79
2018-04-19T08:48:16.602Z,47.44
2018-04-19T08:49:16.533Z,46.56
2018-04-19T08:50:16.507Z,47.14
2018-04-19T08:51:16.401Z,47.72
2018-04-19T08:52:16.330Z,47.72
2018-04-19T08:53:16.261Z,47.44
2018-04-19T08:54:16.192Z,45.79
2018-04-19T08:55:16.123Z,46.59
2018-04-19T08:56:16.054Z,46.30
2018-04-19T08:57:15.986Z,44.85
2018-04-19T08:58:15.918Z,44.18
2018-04-19T08:59:15.850Z,43.70
2018-04-19T09:00:15.783Z,44.66
2018-04-19T09:01:15.711Z,44.76
2018-04-19T09:02:15.646Z,44.08
2018-04-19T09:03:15.577Z,44.10
2018-04-19T09:04:15.509Z,46.71
2018-04-19T09:05:15.440Z,46.03
2018-04-19T09:06:15.372Z,45.94
2018-04-19T09:07:15.303Z,45.17
2018-04-19T09:08:15.237Z,44.78
2018-04-19T09:09:15.168Z,44.01
2018-04-19T09:10:15.100Z,43.14
2018-04-19T09:11:15.032Z,44.68
2018-04-19T09:12:14.964Z,45.94
2018-04-19T09:13:14.895Z,45.36
2018-04-19T09:14:14.826Z,44.87
2018-04-19T09:15:14.760Z,45.94
2018-04-19T09:16:14.692Z,44.59
2018-04-19T09:17:14.623Z,44.49
2018-04-19T09:18:14.558Z,44.85
2018-04-19T09:19:14.488Z,46.11
2018-04-19T09:20:14.419Z,45.17
2018-04-19T09:21:14.350Z,45.43
2018-04-19T09:22:14.284Z,44.59
2018-04-19T09:23:14.214Z,44.49
2018-04-19T09:24:14.148Z,46.90
2018-04-19T09:25:14.085Z,45.17
2018-04-19T09:26:14.011Z,45.17
2018-04-19T09:27:13.944Z,46.13
2018-04-19T09:28:13.876Z,47.48
2018-04-19T09:29:13.808Z,46.23
2018-04-19T09:30:13.740Z,44.68
2018-04-19T09:31:13.673Z,44.59
2018-04-19T09:32:13.905Z,45.65
2018-04-19T09:33:13.536Z,45.75
2018-04-19T09:34:13.498Z,46.11
2018-04-19T09:35:13.402Z,48.13
2018-04-19T09:36:13.334Z,48.52
2018-04-19T09:37:13.265Z,47.58
2018-04-19T09:38:13.197Z,46.03
2018-04-19T09:39:13.131Z,46.23
2018-04-19T09:40:13.064Z,44.68
2018-04-19T09:41:12.996Z,45.94
2018-04-19T09:42:12.928Z,44.87
2018-04-19T09:43:12.860Z,43.81
2018-04-19T09:44:12.797Z,45.55
2018-04-19T09:45:12.725Z,46.13
2018-04-19T09:46:12.657Z,46.23
2018-04-19T09:47:12.594Z,46.23
2018-04-19T09:48:12.523Z,45.17
2018-04-19T09:49:12.452Z,45.17
2018-04-19T09:50:12.385Z,45.76
2018-04-19T09:51:12.318Z,45.96
2018-04-19T09:52:12.249Z,45.09
2018-04-19T09:53:12.182Z,44.97
2018-04-19T09:54:12.200Z,45.57
2018-04-19T09:55:12.046Z,45.09
2018-04-19T09:56:11.981Z,46.81
2018-04-19T09:57:11.915Z,47.31
2018-04-19T09:58:11.842Z,45.45
2018-04-19T09:59:11.774Z,47.31
2018-04-19T10:00:11.706Z,47.60
2018-04-19T10:01:11.643Z,45.18
2018-04-19T10:02:11.570Z,45.09
2018-04-19T10:03:11.505Z,46.15
2018-04-19T10:04:11.470Z,44.60
2018-04-19T10:05:11.368Z,46.25
2018-04-19T10:06:11.301Z,44.70
2018-04-19T10:07:11.234Z,45.09
2018-04-19T10:08:11.167Z,45.18
2018-04-19T10:09:11.095Z,44.12
2018-04-19T10:10:11.029Z,45.00
2018-04-19T10:11:10.963Z,45.00
2018-04-19T10:12:10.897Z,45.28
2018-04-19T10:13:10.827Z,45.18
2018-04-19T10:14:10.760Z,46.15
2018-04-19T10:15:10.694Z,45.18
2018-04-19T10:16:10.691Z,45.38
2018-04-19T10:17:10.557Z,45.67
2018-04-19T10:18:10.490Z,44.22
2018-04-19T10:19:10.424Z,45.31
2018-04-19T10:20:10.357Z,45.31
2018-04-19T10:21:10.288Z,43.85
2018-04-19T10:22:10.220Z,44.34
2018-04-19T10:23:10.153Z,44.73
2018-04-19T10:24:10.086Z,45.11
2018-04-19T10:25:10.019Z,44.63
2018-04-19T10:26:09.952Z,44.43
2018-04-19T10:27:09.887Z,46.56
2018-04-19T10:28:09.817Z,44.43
2018-04-19T10:29:09.753Z,45.40
2018-04-19T10:30:09.682Z,44.43
2018-04-19T10:31:09.615Z,43.37
2018-04-19T10:32:09.550Z,43.37
2018-04-19T10:33:09.478Z,44.94
2018-04-19T10:34:09.413Z,45.11
2018-04-19T10:35:09.346Z,43.78
2018-04-19T10:36:09.279Z,46.20
2018-04-19T10:37:09.210Z,43.98
2018-04-19T10:38:09.143Z,44.07
2018-04-19T10:39:09.076Z,43.10
2018-04-19T10:40:09.009Z,43.88
2018-04-19T10:41:08.941Z,44.75
2018-04-19T10:42:08.874Z,42.82
2018-04-19T10:43:08.807Z,43.20
2018-04-19T10:44:08.739Z,43.20
2018-04-19T10:45:08.672Z,42.82
2018-04-19T10:46:08.604Z,42.72
2018-04-19T10:47:08.542Z,40.88
2018-04-19T10:48:08.472Z,40.71
2018-04-19T10:49:08.403Z,41.77
2018-04-19T10:50:08.342Z,42.74
2018-04-19T10:51:08.270Z,40.81
2018-04-19T10:52:08.204Z,41.29
2018-04-19T10:53:08.180Z,42.35
2018-04-19T10:54:08.133Z,40.83
2018-04-19T10:55:08.003Z,42.20
2018-04-19T10:56:07.936Z,42.20
2018-04-19T10:57:07.870Z,41.33
2018-04-19T10:58:07.803Z,40.17
2018-04-19T10:59:07.742Z,39.78
2018-04-19T11:00:07.671Z,42.20
2018-04-19T11:01:07.608Z,42.51
2018-04-19T11:02:07.538Z,40.19
2018-04-19T11:03:07.471Z,40.26
2018-04-19T11:04:07.405Z,40.75
2018-04-19T11:05:07.345Z,40.75
2018-04-19T11:06:07.274Z,40.65
2018-04-19T11:07:07.208Z,40.17
2018-04-19T11:08:07.142Z,39.29
2018-04-19T11:09:07.074Z,40.26
2018-04-19T11:10:07.010Z,39.59
2018-04-19T11:11:06.943Z,40.48
2018-04-19T11:12:06.879Z,39.61
2018-04-19T11:13:06.812Z,40.77
2018-04-19T11:14:06.746Z,42.22
2018-04-19T11:15:06.683Z,40.86
2018-04-19T11:16:06.615Z,39.11
2018-04-19T11:17:06.547Z,39.32
2018-04-19T11:18:06.482Z,40.96
2018-04-19T11:19:06.421Z,40.96
2018-04-19T11:20:06.352Z,41.55
2018-04-19T11:21:06.287Z,41.06
2018-04-19T11:22:06.222Z,38.83
2018-04-19T11:23:06.153Z,39.90
2018-04-19T11:24:06.088Z,39.12
2018-04-19T11:25:06.026Z,39.53
2018-04-19T11:26:05.957Z,42.24
2018-04-19T11:27:05.893Z,40.03
2018-04-19T11:28:05.827Z,37.81
2018-04-19T11:29:05.761Z,38.31
2018-04-19T11:30:05.695Z,37.55
2018-04-19T11:31:05.631Z,41.64
2018-04-19T11:32:05.567Z,39.32
2018-04-19T11:33:05.502Z,37.59
2018-04-19T11:34:05.437Z,35.55
2018-04-19T11:35:05.374Z,36.44
2018-04-19T11:36:05.314Z,35.33
2018-04-19T11:37:05.247Z,34.25
2018-04-19T11:38:05.185Z,32.50
2018-04-19T11:39:05.122Z,31.43
2018-04-19T11:40:05.062Z,29.88
2018-04-19T11:41:04.999Z,31.46
2018-04-19T11:42:04.938Z,30.51
2018-04-19T11:43:04.879Z,30.42
2018-04-19T11:44:04.817Z,29.27
2018-04-19T11:45:04.757Z,29.47
2018-04-19T11:46:04.700Z,28.40
2018-04-19T11:47:04.640Z,27.91
2018-04-19T11:48:04.629Z,27.90
2018-04-19T11:49:04.523Z,27.72
2018-04-19T11:50:04.466Z,27.94
2018-04-19T11:51:04.412Z,27.64
2018-04-19T11:52:04.352Z,27.65
2018-04-19T11:53:04.295Z,26.88
2018-04-19T11:54:04.238Z,27.58
2018-04-19T11:55:04.181Z,26.11
2018-04-19T11:56:04.128Z,25.34
2018-04-19T11:57:04.071Z,25.05
2018-04-19T11:58:04.018Z,26.04
2018-04-19T11:59:03.961Z,25.61
2018-04-19T12:00:03.913Z,26.78
2018-04-19T12:01:03.907Z,26.21
2018-04-19T12:02:03.798Z,24.82
2018-04-19T12:03:03.744Z,24.15
2018-04-19T12:04:03.690Z,23.85
2018-04-19T12:05:03.635Z,24.44
2018-04-19T12:06:03.582Z,25.34
2018-04-19T12:07:03.528Z,24.15
2018-04-19T12:08:03.475Z,24.25
2018-04-19T12:09:03.421Z,24.13
2018-04-19T12:10:03.369Z,24.42
2018-04-19T12:11:03.315Z,24.12
2018-04-19T12:12:03.263Z,24.90
2018-04-19T12:13:03.209Z,24.50
2018-04-19T12:14:03.156Z,24.90
2018-04-19T12:15:03.103Z,24.61
2018-04-19T12:16:03.049Z,24.32
2018-04-19T12:17:02.996Z,23.93
2018-04-19T12:18:02.943Z,23.54
2018-04-19T12:19:02.891Z,24.21
2018-04-19T12:20:02.838Z,24.80
2018-04-19T12:21:02.787Z,25.20
2018-04-19T12:22:02.732Z,25.11
2018-04-19T12:23:02.678Z,24.50
2018-04-19T12:24:02.625Z,24.90
2018-04-19T12:25:02.571Z,24.90
2018-04-19T12:26:02.523Z,25.59
2018-04-19T12:27:02.464Z,26.57
2018-04-19T12:28:02.412Z,23.52
2018-04-19T12:29:02.359Z,24.40
2018-04-19T12:30:02.306Z,24.29
2018-04-19T12:31:02.255Z,24.60
2018-04-19T12:32:02.203Z,25.39
2018-04-19T12:33:02.151Z,26.49
2018-04-19T12:34:02.093Z,26.23
2018-04-19T12:35:02.040Z,24.48
2018-04-19T12:36:02.000Z,22.80
2018-04-19T12:37:01.937Z,23.65
2018-04-19T12:38:01.886Z,24.15
2018-04-19T12:39:01.830Z,23.19
2018-04-19T12:40:01.778Z,22.03
2018-04-19T12:41:01.724Z,23.41
2018-04-19T12:42:01.672Z,20.87
2018-04-19T12:43:01.620Z,22.16
2018-04-19T12:44:01.569Z,21.48
2018-04-19T12:45:01.516Z,20.39
2018-04-19T12:46:01.468Z,21.06
2018-04-19T12:47:01.413Z,23.41
2018-04-19T12:48:01.362Z,25.56
2018-04-19T12:49:01.314Z,22.73
2018-04-19T12:50:01.271Z,23.81
2018-04-19T12:51:01.208Z,23.91
2018-04-19T12:52:01.156Z,21.66